Time;durP1;ratioP1;P1;durP2;ratioP2;P2;SDS_P1;SDS_P2;PMS_P1;PMS_P2;Temp;Humidity;BMP_temperature;BMP_pressure;BME280_temperature;BME280_humidity;BME280_pressure;Samples;Min_cycle;Max_cycle;Signal;HPM_P1;HPM_P2
2023/08/26 00:05:14;;;;;;;55.28;26.88;;;17.20;99.90;;;;;;6097263;23;20394;-87
2023/08/26 00:31:51;;;;;;;33.40;20.55;;;16.80;99.90;;;;;;6240191;22;20058;-89
2023/08/26 00:35:33;;;;;;;;;;;;;;;;;;;;;
2023/08/26 00:42:27;;;;;;;29.40;17.85;;;16.60;99.90;;;;;;6092788;23;20034;-88
2023/08/26 00:54:09;;;;;;;;;;;;;;;;;;;;;
2023/08/26 02:06:21;;;;;;;;;;;;;;;;;;;;;
2023/08/26 02:10:20;;;;;;;;;;;;;;;;;;;;;
2023/08/26 02:13:52;;;;;;;;;;;;;;;;;;;;;
2023/08/26 02:17:51;;;;;;;;;;;;;;;;;;;;;
2023/08/26 03:00:15;;;;;;;27.17;13.63;;;15.20;99.90;;;;;;6246604;23;20016;-87
2023/08/26 03:03:28;;;;;;;;;;;;;;;;;;;;;
2023/08/26 03:23:58;;;;;;;;;;;;;;;;;;;;;
2023/08/26 03:39:09;;;;;;;23.10;12.15;;;15.00;99.90;;;;;;6214758;22;20273;-89
2023/08/26 03:47:53;;;;;;;;;;;;;;;;;;;;;
2023/08/26 03:51:09;;;;;;;19.95;11.68;;;15.70;99.90;;;;;;6007099;23;20014;-89
2023/08/26 03:56:29;;;;;;;22.98;12.63;;;14.80;99.90;;;;;;6250855;22;20024;31
2023/08/26 04:06:10;;;;;;;;;;;;;;;;;;;;;
2023/08/26 04:29:48;;;;;;;29.55;13.38;;;14.40;99.90;;;;;;6126444;23;20025;-89
2023/08/26 04:57:47;;;;;;;25.58;13.32;;;14.80;99.90;;;;;;6267411;22;20055;-88
2023/08/26 05:03:40;;;;;;;;;;;;;;;;;;;;;
2023/08/26 05:07:00;;;;;;;23.10;12.73;;;14.80;99.90;;;;;;6152930;23;20108;-89
2023/08/26 05:10:26;;;;;;;29.73;13.25;;;14.80;99.90;;;;;;6184881;23;20032;-88
2023/08/26 05:13:31;;;;;;;25.20;13.75;;;14.90;99.90;;;;;;6214955;23;20017;-89
2023/08/26 05:26:03;;;;;;;25.25;13.15;;;15.00;99.90;;;;;;6180148;23;20171;-88
2023/08/26 05:29:00;;;;;;;25.15;12.68;;;15.00;99.90;;;;;;6136451;23;20028;-89
2023/08/26 05:35:57;;;;;;;22.38;11.15;;;15.10;99.90;;;;;;6214784;23;20024;-88
2023/08/26 05:42:40;;;;;;;;;;;;;;;;;;;;;
2023/08/26 05:45:42;;;;;;;21.90;12.05;;;15.10;99.90;;;;;;5950484;24;20067;-89
2023/08/26 06:13:42;;;;;;;27.33;15.38;;;15.30;99.90;;;;;;6223402;23;20020;-88
2023/08/26 06:19:54;;;;;;;25.25;14.20;;;15.30;99.90;;;;;;6280565;22;20024;-86
2023/08/26 06:22:22;;;;;;;25.75;14.93;;;15.70;99.90;;;;;;6252051;22;20116;-85
2023/08/26 06:24:51;;;;;;;23.30;15.65;;;15.30;99.90;;;;;;6252270;22;20448;-85
2023/08/26 06:27:30;;;;;;;;;;;;;;;;;;;;;
2023/08/26 06:33:00;;;;;;;26.55;16.65;;;15.40;99.90;;;;;;6254327;22;20028;-83
2023/08/26 06:38:31;;;;;;;27.83;16.52;;;15.30;99.90;;;;;;6279647;22;20027;-84
2023/08/26 06:41:15;;;;;;;28.65;17.25;;;15.30;99.90;;;;;;6252891;22;20008;-83
2023/08/26 06:43:40;;;;;;;30.75;17.85;;;15.20;99.90;;;;;;6252702;22;20478;-84
2023/08/26 06:46:24;;;;;;;27.73;17.63;;;15.30;99.90;;;;;;6252336;22;20027;-83
2023/08/26 06:49:09;;;;;;;;;;;15.70;99.90;;;;;;6251650;22;20058;-83
2023/08/26 06:55:30;;;;;;;27.75;16.45;;;14.70;99.90;;;;;;6279293;22;20018;-84
2023/08/26 06:57:56;;;;;;;25.83;17.45;;;15.10;99.90;;;;;;6253014;22;20007;-82
2023/08/26 07:00:22;;;;;;;32.63;18.95;;;15.20;99.90;;;;;;6252820;22;20448;-81
2023/08/26 07:07:01;;;;;;;27.55;16.95;;;15.30;99.90;;;;;;6280872;22;20042;-82
2023/08/26 07:09:26;;;;;;;28.08;17.00;;;15.30;99.90;;;;;;6268279;22;20012;-82
2023/08/26 07:11:52;;;;;;;28.80;17.40;;;16.20;99.90;;;;;;6251585;22;20112;-83
2023/08/26 07:14:30;;;;;;;27.45;15.98;;;15.30;99.90;;;;;;6266188;22;20026;-83
2023/08/26 07:17:08;;;;;;;25.15;15.60;;;15.20;99.90;;;;;;6273691;22;20022;-82
2023/08/26 07:19:50;;;;;;;25.33;16.20;;;15.30;99.90;;;;;;6251657;22;20022;-83
2023/08/26 07:22:16;;;;;;;25.30;16.05;;;15.60;99.90;;;;;;6252928;22;20032;-82
2023/08/26 07:24:41;;;;;;;25.33;15.70;;;15.40;99.90;;;;;;6279624;22;20016;-86
2023/08/26 07:27:13;;;;;;;27.83;15.93;;;16.20;99.90;;;;;;6279444;22;20015;-84
2023/08/26 07:29:48;;;;;;;26.48;15.35;;;16.40;99.90;;;;;;6280932;22;20459;-85
2023/08/26 07:32:35;;;;;;;28.38;15.50;;;15.50;99.90;;;;;;6248996;22;20390;-84
2023/08/26 07:35:36;;;;;;;25.20;16.13;;;15.40;99.90;;;;;;6276599;22;20020;-84
2023/08/26 07:38:05;;;;;;;29.73;17.33;;;15.40;99.90;;;;;;6269630;22;20024;-84
2023/08/26 07:40:31;;;;;;;22.63;16.83;;;15.30;99.90;;;;;;6248547;22;20012;-84
2023/08/26 07:43:10;;;;;;;23.85;15.77;;;15.20;99.90;;;;;;6248584;22;20508;-84
2023/08/26 07:45:36;;;;;;;26.02;16.90;;;16.10;99.90;;;;;;6275530;22;20012;-84
2023/08/26 07:48:05;;;;;;;24.10;16.60;;;15.20;99.90;;;;;;6249012;22;20011;-84
2023/08/26 07:50:30;;;;;;;22.95;16.55;;;15.20;99.90;;;;;;6248765;22;20045;-85
2023/08/26 07:52:56;;;;;;;30.17;17.27;;;15.30;99.90;;;;;;6247474;22;20024;-84
2023/08/26 07:55:51;;;;;;;25.85;16.60;;;15.30;99.90;;;;;;6249049;22;20490;-84
2023/08/26 07:58:26;;;;;;;27.00;16.58;;;15.20;99.90;;;;;;6248837;22;20016;-88
2023/08/26 08:00:55;;;;;;;25.42;16.73;;;15.20;99.90;;;;;;6275151;22;20023;-85
2023/08/26 08:03:21;;;;;;;22.35;15.98;;;15.20;99.90;;;;;;6247455;22;20054;-85
2023/08/26 08:06:43;;;;;;;27.42;16.75;;;15.20;99.90;;;;;;6247725;22;20015;-85
2023/08/26 08:09:33;;;;;;;24.13;16.85;;;15.10;99.90;;;;;;6200300;22;20012;-85
2023/08/26 08:12:24;;;;;;;24.70;15.93;;;14.70;99.90;;;;;;6248187;22;20566;-85
2023/08/26 08:15:24;;;;;;;23.85;15.93;;;15.00;99.90;;;;;;6234816;22;20031;-84
2023/08/26 08:18:11;;;;;;;25.63;16.23;;;15.00;99.90;;;;;;6154497;23;20045;-85
2023/08/26 08:20:45;;;;;;;26.45;15.48;;;15.10;99.90;;;;;;6127464;23;20469;-85
2023/08/26 08:23:11;;;;;;;23.75;15.77;;;15.10;99.90;;;;;;6155059;23;20338;-85
2023/08/26 08:25:46;;;;;;;26.13;16.00;;;15.10;99.90;;;;;;6154305;23;20019;-85
2023/08/26 08:28:11;;;;;;;25.70;16.30;;;15.20;99.90;;;;;;6128777;23;20382;-85
2023/08/26 08:31:09;;;;;;;23.35;15.20;;;15.40;99.90;;;;;;6155326;23;20021;-84
2023/08/26 08:33:59;;;;;;;25.27;14.60;;;15.50;99.90;;;;;;6033023;23;20358;-84
2023/08/26 08:36:42;;;;;;;21.83;14.60;;;16.10;99.90;;;;;;6127454;23;20080;-85
2023/08/26 08:39:10;;;;;;;21.25;14.73;;;15.80;99.90;;;;;;6155158;23;20018;-84
2023/08/26 08:41:41;;;;;;;22.23;15.32;;;16.30;99.90;;;;;;6127782;23;20350;-85
2023/08/26 08:44:15;;;;;;;23.05;15.65;;;16.50;99.90;;;;;;6129136;23;20014;-85
2023/08/26 08:47:22;;;;;;;;;;;;;;;;;;;;;
2023/08/26 08:50:23;;;;;;;23.75;14.55;;;16.40;99.90;;;;;;6072208;23;20025;-85
2023/08/26 08:57:50;;;;;;;23.92;13.77;;;16.40;99.90;;;;;;5977157;24;20028;-84
2023/08/26 09:00:31;;;;;;;20.77;13.00;;;16.40;99.90;;;;;;6040721;22;20020;-84
2023/08/26 09:04:05;;;;;;;19.33;12.77;;;16.20;99.90;;;;;;6247369;22;20023;-84
2023/08/26 09:06:31;;;;;;;20.02;12.95;;;16.40;99.90;;;;;;6248041;22;20341;-83
2023/08/26 09:09:15;;;;;;;21.75;12.70;;;16.70;99.90;;;;;;6247599;22;20020;-84
2023/08/26 09:15:01;;;;;;;19.65;12.73;;;17.00;99.90;;;;;;6127025;23;20025;-85
2023/08/26 09:17:53;;;;;;;;;;;;;;;;;;;;;
2023/08/26 09:20:46;;;;;;;16.83;11.13;;;17.30;99.90;;;;;;6156023;22;20451;-82
2023/08/26 09:23:59;;;;;;;17.30;10.50;;;17.40;99.90;;;;;;6250590;22;20099;-84
2023/08/26 09:26:43;;;;;;;15.13;10.50;;;17.40;99.90;;;;;;6250326;22;20378;-84
2023/08/26 09:29:27;;;;;;;17.42;10.48;;;17.30;99.90;;;;;;6250377;22;20022;-84
2023/08/26 09:34:50;;;;;;;14.93;10.35;;;17.10;99.90;;;;;;6153098;23;19987;-84
2023/08/26 09:37:29;;;;;;;17.80;10.27;;;17.20;99.90;;;;;;6154330;23;20045;-84
2023/08/26 09:43:39;;;;;;;19.05;9.60;;;17.30;99.90;;;;;;6129114;23;20021;-85
2023/08/26 09:46:36;;;;;;;;;;;17.10;99.90;;;;;;6189985;22;20016;-85
2023/08/26 09:49:05;;;;;;;15.07;8.65;;;17.40;99.90;;;;;;6250085;22;19938;-83
2023/08/26 09:51:31;;;;;;;14.60;7.93;;;18.00;99.90;;;;;;6250059;22;20064;-83
2023/08/26 09:53:58;;;;;;;13.68;8.13;;;18.20;99.90;;;;;;6276809;22;20019;-83
2023/08/26 09:56:26;;;;;;;15.90;7.95;;;18.60;99.90;;;;;;6250093;22;20086;-83
2023/08/26 09:58:56;;;;;;;14.48;6.78;;;18.30;99.90;;;;;;6249242;22;20388;-84
2023/08/26 10:01:24;;;;;;;14.60;6.70;;;18.80;99.90;;;;;;6277266;22;20056;-83
2023/08/26 10:04:08;;;;;;;11.45;5.60;;;18.30;99.90;;;;;;6276866;22;20016;-83
2023/08/26 10:07:00;;;;;;;12.57;5.97;;;18.40;99.90;;;;;;6211526;23;20020;-83
2023/08/26 10:09:44;;;;;;;14.00;5.35;;;18.40;99.90;;;;;;6213772;23;20020;-82
2023/08/26 10:12:25;;;;;;;14.05;5.40;;;18.60;99.90;;;;;;6214513;23;20025;-83
2023/08/26 10:15:00;;;;;;;13.85;5.97;;;18.80;99.90;;;;;;6188152;23;20017;-83
2023/08/26 10:17:37;;;;;;;13.60;4.20;;;19.10;99.90;;;;;;6214285;23;20346;-83
2023/08/26 10:20:05;;;;;;;11.73;4.05;;;19.70;99.90;;;;;;6214997;23;20028;-84
2023/08/26 10:26:00;;;;;;;14.07;4.28;;;19.50;99.90;;;;;;6149462;23;20017;-84
2023/08/26 10:28:46;;;;;;;10.80;4.20;;;19.50;99.90;;;;;;6213041;23;20140;-83
2023/08/26 10:31:32;;;;;;;11.93;3.95;;;19.60;99.90;;;;;;6190372;23;20024;-84
2023/08/26 10:34:19;;;;;;;11.77;3.92;;;19.40;99.90;;;;;;6189851;23;20052;-83
2023/08/26 10:36:55;;;;;;;11.25;3.80;;;19.00;99.90;;;;;;6198950;22;20020;-84
2023/08/26 10:39:34;;;;;;;10.00;3.00;;;19.60;99.90;;;;;;6250240;22;20011;-83
2023/08/26 10:42:32;;;;;;;10.65;2.80;;;19.70;99.90;;;;;;6246754;22;20044;-83
2023/08/26 10:45:13;;;;;;;10.90;3.13;;;20.00;99.90;;;;;;6224797;22;20020;-83
2023/08/26 10:47:58;;;;;;;8.93;2.97;;;20.40;99.90;;;;;;6249077;22;20008;-83
2023/08/26 10:53:43;;;;;;;9.27;2.65;;;20.80;99.90;;;;;;6269148;22;20077;-85
2023/08/26 10:57:13;;;;;;;;;;;;;;;;;;;;;
2023/08/26 11:03:51;;;;;;;11.40;3.10;;;20.70;99.90;;;;;;6098921;23;20025;-85
2023/08/26 11:09:53;;;;;;;8.20;2.58;;;20.80;99.90;;;;;;6243822;22;20020;-86
2023/08/26 11:12:26;;;;;;;10.27;2.75;;;20.30;99.90;;;;;;6231030;22;20386;-83
2023/08/26 11:15:05;;;;;;;8.60;2.80;;;20.60;99.90;;;;;;6247267;22;20217;-84
2023/08/26 11:17:34;;;;;;;10.50;2.92;;;20.40;99.90;;;;;;6241167;22;20498;-83
2023/08/26 11:20:06;;;;;;;11.40;2.83;;;20.30;99.90;;;;;;6249254;22;20132;-83
2023/08/26 11:22:32;;;;;;;9.68;2.80;;;20.20;99.90;;;;;;6249113;22;20012;-83
2023/08/26 11:24:57;;;;;;;9.23;2.70;;;20.30;99.90;;;;;;6275957;22;20462;-84
2023/08/26 11:27:23;;;;;;;7.55;2.30;;;20.60;99.90;;;;;;6249723;22;20008;-84
2023/08/26 11:29:49;;;;;;;7.65;2.55;;;21.00;99.90;;;;;;6248905;22;20026;-85
2023/08/26 11:32:17;;;;;;;9.20;2.88;;;20.80;99.90;;;;;;6276286;22;20023;-86
2023/08/26 11:34:43;;;;;;;10.30;2.67;;;20.60;99.90;;;;;;6248912;22;20091;-84
2023/08/26 11:37:17;;;;;;;9.50;2.42;;;20.60;99.90;;;;;;6248346;22;20058;-85
2023/08/26 11:39:43;;;;;;;9.32;2.47;;;20.60;99.90;;;;;;6276846;22;20447;-85
2023/08/26 11:42:15;;;;;;;8.27;2.55;;;20.90;99.90;;;;;;6277123;22;20090;-85
2023/08/26 11:44:50;;;;;;;6.35;2.00;;;21.10;99.90;;;;;;6245145;22;20019;-85
2023/08/26 11:47:23;;;;;;;6.30;2.10;;;21.10;99.90;;;;;;6248330;22;20344;-85
2023/08/26 11:49:49;;;;;;;8.05;2.30;;;21.20;99.90;;;;;;6275713;22;20008;-84
2023/08/26 11:52:15;;;;;;;8.35;1.90;;;21.50;99.90;;;;;;6276142;22;20431;-85
2023/08/26 11:55:30;;;;;;;5.47;1.83;;;21.50;99.90;;;;;;6274370;22;20020;-84
2023/08/26 11:57:58;;;;;;;6.32;1.80;;;21.20;99.90;;;;;;6275707;22;20069;-85
2023/08/26 12:00:31;;;;;;;7.60;2.00;;;21.80;99.90;;;;;;6248676;22;20015;-84
2023/08/26 12:03:17;;;;;;;8.57;2.00;;;22.00;99.90;;;;;;6276846;22;20058;-85
2023/08/26 12:05:55;;;;;;;5.95;1.70;;;22.20;99.90;;;;;;6248448;22;20325;-86
2023/08/26 12:08:21;;;;;;;5.90;1.70;;;22.50;99.90;;;;;;6249777;22;20149;-86
2023/08/26 12:10:52;;;;;;;5.88;1.80;;;22.80;99.90;;;;;;6248899;22;20012;-86
2023/08/26 12:13:19;;;;;;;7.20;1.90;;;23.00;99.90;;;;;;6248032;22;20027;-86
2023/08/26 12:15:45;;;;;;;6.03;1.80;;;22.80;99.90;;;;;;6249087;22;20034;-86
2023/08/26 12:18:11;;;;;;;6.50;1.80;;;22.90;99.90;;;;;;6249252;22;20012;-84
2023/08/26 12:20:38;;;;;;;5.07;1.60;;;23.10;99.90;;;;;;6274786;22;20016;-85
2023/08/26 12:23:08;;;;;;;6.47;1.75;;;22.80;99.90;;;;;;6249581;22;20011;-85
2023/08/26 12:25:35;;;;;;;6.05;1.80;;;23.00;99.90;;;;;;6248425;22;20020;-85
2023/08/26 12:28:19;;;;;;;6.65;1.95;;;22.90;99.90;;;;;;6248270;22;20011;-85
2023/08/26 12:30:46;;;;;;;5.63;1.60;;;22.90;99.90;;;;;;6248684;22;20059;-85
2023/08/26 12:33:12;;;;;;;6.88;1.85;;;23.10;99.90;;;;;;6276481;22;20057;-85
2023/08/26 12:35:39;;;;;;;5.57;1.60;;;23.10;99.90;;;;;;6247808;22;20027;-84
2023/08/26 12:38:06;;;;;;;8.13;1.98;;;22.70;99.90;;;;;;6249833;22;20012;-86
2023/08/26 12:40:36;;;;;;;4.50;1.90;;;22.20;99.90;;;;;;6275072;22;20015;-86
2023/08/26 12:43:06;;;;;;;6.57;1.95;;;21.90;99.90;;;;;;6276812;22;20015;-85
2023/08/26 12:45:33;;;;;;;5.45;1.85;;;22.10;99.90;;;;;;6249352;22;20045;-86
2023/08/26 12:48:00;;;;;;;9.65;1.90;;;21.80;99.90;;;;;;6248222;22;20050;-85
2023/08/26 12:50:26;;;;;;;6.85;2.08;;;21.90;99.90;;;;;;6249566;22;20058;-86
2023/08/26 12:52:51;;;;;;;6.32;2.00;;;22.10;99.90;;;;;;6248640;22;20019;-86
2023/08/26 12:55:18;;;;;;;5.80;2.08;;;22.50;99.90;;;;;;6247641;22;20468;-85
2023/08/26 12:57:44;;;;;;;6.55;2.00;;;22.50;99.90;;;;;;6249242;22;20035;-85
2023/08/26 13:00:11;;;;;;;4.85;1.77;;;22.90;99.90;;;;;;6276923;22;20008;-85
2023/08/26 13:02:37;;;;;;;7.88;2.10;;;22.90;99.90;;;;;;6249013;22;20043;-86
2023/08/26 13:05:04;;;;;;;6.03;2.00;;;22.30;99.90;;;;;;6276884;22;20090;-86
2023/08/26 13:07:30;;;;;;;6.97;1.90;;;22.20;99.90;;;;;;6250652;22;20015;-86
2023/08/26 13:09:56;;;;;;;6.05;1.90;;;22.00;99.90;;;;;;6275281;22;20077;-85
2023/08/26 13:12:21;;;;;;;6.40;1.80;;;21.70;99.90;;;;;;6248996;22;20016;-86
2023/08/26 13:14:47;;;;;;;5.72;1.90;;;21.70;99.90;;;;;;6277748;22;20061;-86
2023/08/26 13:17:13;;;;;;;6.72;2.00;;;21.80;99.90;;;;;;6277561;22;20087;-85
2023/08/26 13:19:41;;;;;;;7.15;1.92;;;22.10;99.90;;;;;;6251901;22;20016;-86
2023/08/26 13:22:12;;;;;;;6.78;2.10;;;22.40;99.90;;;;;;6277851;22;20019;-87
2023/08/26 13:24:38;;;;;;;5.20;1.92;;;22.70;99.90;;;;;;6276037;22;20039;-87
2023/08/26 13:27:04;;;;;;;6.68;2.17;;;22.60;99.90;;;;;;6251221;22;20027;-86
2023/08/26 13:29:30;;;;;;;6.70;2.00;;;22.50;99.90;;;;;;6280036;22;20022;-87
2023/08/26 13:31:56;;;;;;;6.75;2.10;;;22.10;99.90;;;;;;6277721;22;20039;-87
2023/08/26 13:38:03;;;;;;;19.48;12.98;;;21.70;99.90;;;;;;6277955;22;20019;-87
2023/08/26 13:40:28;;;;;;;13.43;7.13;;;21.60;99.90;;;;;;6252364;22;20447;-87
2023/08/26 13:42:55;;;;;;;9.82;2.80;;;21.70;99.90;;;;;;6250204;22;20016;-86
2023/08/26 13:45:21;;;;;;;8.05;2.58;;;21.80;99.90;;;;;;6276971;22;20015;-86
2023/08/26 13:47:56;;;;;;;7.22;2.33;;;22.10;99.90;;;;;;6277022;22;20020;-87
2023/08/26 13:50:21;;;;;;;7.88;2.92;;;22.50;99.90;;;;;;6250208;22;20011;-86
2023/08/26 13:52:59;;;;;;;8.50;3.35;;;22.60;99.90;;;;;;6276757;22;20088;-87
2023/08/26 13:55:25;;;;;;;7.82;2.58;;;22.30;99.90;;;;;;6246308;23;20463;-86
2023/08/26 13:57:51;;;;;;;58.05;37.83;;;21.90;99.90;;;;;;6246801;23;20091;-86
2023/08/26 14:03:37;;;;;;;17.10;12.35;;;21.50;99.90;;;;;;6262943;22;20028;-86
2023/08/26 14:06:07;;;;;;;9.60;2.97;;;21.40;99.90;;;;;;6250541;22;20027;-85
2023/08/26 14:08:34;;;;;;;7.68;3.05;;;21.40;99.90;;;;;;6277560;22;20089;-82
2023/08/26 14:11:00;;;;;;;9.02;3.80;;;21.50;99.90;;;;;;6250545;22;20016;-81
2023/08/26 14:13:26;;;;;;;8.57;2.78;;;21.60;99.90;;;;;;6249452;22;20030;-84
2023/08/26 14:15:52;;;;;;;10.55;6.60;;;21.80;99.90;;;;;;6250053;22;20008;-85
2023/08/26 14:18:17;;;;;;;8.00;3.40;;;22.20;99.90;;;;;;6248147;22;20023;-85
2023/08/26 14:20:44;;;;;;;8.10;3.55;;;22.80;99.90;;;;;;6274846;22;20014;-85
2023/08/26 14:23:10;;;;;;;20.90;12.90;;;23.00;99.90;;;;;;6249761;22;20034;-85
2023/08/26 14:25:40;;;;;;;17.65;12.15;;;23.00;99.90;;;;;;6277693;22;20436;-86
2023/08/26 14:28:06;;;;;;;18.05;11.32;;;22.80;99.90;;;;;;6249136;22;20448;-85
2023/08/26 14:30:32;;;;;;;10.00;4.32;;;22.60;99.90;;;;;;6250137;22;20017;-86
2023/08/26 14:32:58;;;;;;;22.98;14.23;;;22.30;99.90;;;;;;6276417;22;20043;-85
2023/08/26 14:35:23;;;;;;;7.82;2.67;;;22.00;99.90;;;;;;6249633;22;20344;-85
2023/08/26 14:37:49;;;;;;;17.25;10.18;;;21.70;99.90;;;;;;6247373;22;20011;-86
2023/08/26 14:40:15;;;;;;;7.60;2.53;;;21.50;99.90;;;;;;6248419;22;20760;-86
2023/08/26 14:42:41;;;;;;;11.27;5.50;;;21.30;99.90;;;;;;6249187;22;20024;-86
2023/08/26 14:45:07;;;;;;;13.88;8.27;;;21.20;99.90;;;;;;6277047;22;20011;-85
2023/08/26 14:47:33;;;;;;;13.95;6.88;;;21.10;99.90;;;;;;6276549;22;20062;-85
2023/08/26 14:49:59;;;;;;;12.38;6.78;;;21.00;99.90;;;;;;6249974;22;20008;-85
2023/08/26 14:52:24;;;;;;;11.25;5.97;;;21.00;99.90;;;;;;6249962;22;20022;-85
2023/08/26 14:54:50;;;;;;;8.70;3.10;;;20.90;99.90;;;;;;6249104;22;20026;-84
2023/08/26 14:57:16;;;;;;;7.30;2.78;;;20.80;99.90;;;;;;6250197;22;20507;-85
2023/08/26 14:59:43;;;;;;;8.73;3.47;;;20.50;99.90;;;;;;6251379;22;20073;-85
2023/08/26 15:02:10;;;;;;;23.63;15.65;;;20.30;99.90;;;;;;6248985;22;20019;-84
2023/08/26 15:04:36;;;;;;;7.95;3.20;;;19.90;99.90;;;;;;6276623;22;20448;-83
2023/08/26 15:07:02;;;;;;;14.38;8.85;;;19.60;99.90;;;;;;6276177;22;20016;-82
2023/08/26 15:09:28;;;;;;;8.20;3.05;;;19.50;99.90;;;;;;6275955;22;20332;-82
2023/08/26 15:11:53;;;;;;;11.07;3.65;;;19.40;99.90;;;;;;6249070;22;20051;-82
2023/08/26 15:14:19;;;;;;;8.15;3.28;;;19.10;99.90;;;;;;6249531;22;20091;-83
2023/08/26 15:16:44;;;;;;;8.32;3.10;;;18.60;99.90;;;;;;6276253;22;20039;-84
2023/08/26 15:19:10;;;;;;;7.45;2.70;;;18.20;99.90;;;;;;6276432;22;20023;-84
2023/08/26 15:21:36;;;;;;;7.28;2.83;;;17.80;99.90;;;;;;6249167;22;20081;-85
2023/08/26 15:24:02;;;;;;;7.13;2.80;;;17.70;99.90;;;;;;6249267;22;20440;-84
2023/08/26 15:26:28;;;;;;;7.25;2.78;;;17.70;99.90;;;;;;6276893;22;20069;-85
2023/08/26 15:28:53;;;;;;;6.72;2.20;;;17.60;99.90;;;;;;6276432;22;20455;-84
2023/08/26 15:31:19;;;;;;;6.30;2.30;;;17.70;99.90;;;;;;6276027;22;20030;-84
2023/08/26 15:33:44;;;;;;;7.00;2.58;;;17.80;99.90;;;;;;6276068;22;20020;-82
2023/08/26 15:36:10;;;;;;;8.07;2.53;;;17.90;99.90;;;;;;6248182;22;20419;-84
2023/08/26 15:38:36;;;;;;;6.32;2.63;;;18.00;99.90;;;;;;6248706;22;20095;-84
2023/08/26 15:41:03;;;;;;;6.43;2.58;;;18.10;99.90;;;;;;6249429;22;20094;-84
2023/08/26 15:43:36;;;;;;;7.95;2.70;;;18.10;99.90;;;;;;6248891;22;20463;-84
2023/08/26 15:47:08;;;;;;;5.97;2.58;;;18.30;99.90;;;;;;6250304;22;20008;-86
2023/08/26 15:49:30;;;;;;;6.45;2.40;;;18.10;99.90;;;;;;6271464;22;20463;-85
2023/08/26 15:51:55;;;;;;;7.35;2.58;;;18.20;99.90;;;;;;6274037;22;20019;-84
2023/08/26 15:54:36;;;;;;;7.68;2.40;;;18.40;99.90;;;;;;6276080;22;20012;-83
2023/08/26 15:57:10;;;;;;;7.07;2.75;;;18.40;99.90;;;;;;6276215;22;20016;-83
2023/08/26 15:59:51;;;;;;;9.27;2.55;;;18.40;99.90;;;;;;6247828;22;20016;-84
2023/08/26 16:02:28;;;;;;;6.60;2.50;;;18.40;99.90;;;;;;6275912;22;20019;-84
2023/08/26 16:04:54;;;;;;;7.65;2.45;;;18.30;99.90;;;;;;6274864;22;20391;-84
2023/08/26 16:07:19;;;;;;;5.93;2.28;;;18.30;99.90;;;;;;6248809;22;20069;-82
2023/08/26 16:09:48;;;;;;;6.85;2.10;;;18.30;99.90;;;;;;6274946;22;20455;-85
2023/08/26 16:12:17;;;;;;;7.43;2.50;;;18.30;99.90;;;;;;6246765;22;20066;-85
2023/08/26 16:14:47;;;;;;;5.43;2.08;;;18.40;99.90;;;;;;6247882;22;20095;-83
2023/08/26 16:17:29;;;;;;;4.82;1.90;;;18.50;99.90;;;;;;6276358;22;20015;-83
2023/08/26 16:19:55;;;;;;;5.20;1.80;;;18.50;99.90;;;;;;6247547;22;20380;-84
2023/08/26 16:22:20;;;;;;;5.53;2.00;;;18.60;99.90;;;;;;6248800;22;20030;-83
2023/08/26 16:24:48;;;;;;;6.35;2.00;;;18.70;99.90;;;;;;6275781;22;20011;-83
2023/08/26 16:27:14;;;;;;;5.45;2.15;;;18.80;99.90;;;;;;6247506;22;20020;-84
2023/08/26 16:29:40;;;;;;;5.30;2.10;;;18.80;99.90;;;;;;6247779;22;20150;-82
2023/08/26 16:32:08;;;;;;;6.20;2.13;;;18.90;99.90;;;;;;6275625;22;20328;-83
2023/08/26 16:34:39;;;;;;;8.63;2.45;;;18.80;99.90;;;;;;6247611;22;20094;-83
2023/08/26 16:37:11;;;;;;;6.28;2.22;;;18.80;99.90;;;;;;6275982;22;20026;-83
2023/08/26 16:39:37;;;;;;;7.15;2.47;;;18.80;99.90;;;;;;6274540;22;20018;-84
2023/08/26 16:42:09;;;;;;;6.10;2.22;;;18.70;99.90;;;;;;6248350;22;20395;-83
2023/08/26 16:44:49;;;;;;;6.32;2.42;;;18.70;99.90;;;;;;6275498;22;20020;-83
2023/08/26 16:47:29;;;;;;;6.47;2.38;;;18.60;99.90;;;;;;6247736;22;20081;-83
2023/08/26 16:50:41;;;;;;;6.70;2.30;;;18.50;99.90;;;;;;6248172;22;20023;-84
2023/08/26 16:53:07;;;;;;;6.90;2.50;;;18.50;99.90;;;;;;6248497;22;20466;-83
2023/08/26 16:55:38;;;;;;;7.90;2.80;;;18.40;99.90;;;;;;6275257;22;20061;-83
2023/08/26 16:58:11;;;;;;;7.07;2.80;;;18.40;99.90;;;;;;6248477;22;20015;-83
2023/08/26 17:00:37;;;;;;;7.75;2.88;;;18.40;99.90;;;;;;6247735;22;20012;-84
2023/08/26 17:03:08;;;;;;;7.13;2.72;;;18.40;99.90;;;;;;6275726;22;20072;-83
2023/08/26 17:05:49;;;;;;;7.55;2.70;;;18.40;99.90;;;;;;6275246;22;20020;-83
2023/08/26 17:08:15;;;;;;;7.00;2.70;;;18.40;99.90;;;;;;6247611;22;20038;-83
2023/08/26 17:11:11;;;;;;;8.75;2.70;;;18.40;99.90;;;;;;6248329;22;20463;-83
2023/08/26 17:13:43;;;;;;;7.45;2.75;;;18.40;99.90;;;;;;6248100;22;20103;-83
2023/08/26 17:16:09;;;;;;;7.75;2.72;;;18.30;99.90;;;;;;6275640;22;20070;-84
2023/08/26 17:18:35;;;;;;;6.78;2.80;;;18.40;99.90;;;;;;6275251;22;20340;-84
2023/08/26 17:21:48;;;;;;;7.63;2.78;;;18.50;99.90;;;;;;6275403;22;20024;-83
2023/08/26 17:24:26;;;;;;;7.55;2.97;;;18.30;99.90;;;;;;6248157;22;20448;-84
2023/08/26 17:26:53;;;;;;;7.10;2.90;;;18.80;99.90;;;;;;6274443;22;20102;-84
2023/08/26 17:29:19;;;;;;;7.15;3.05;;;18.80;99.90;;;;;;6247173;22;20007;-86
2023/08/26 17:31:44;;;;;;;8.90;3.10;;;18.80;99.90;;;;;;6247474;22;20020;-85
2023/08/26 17:34:34;;;;;;;;;;;;;;;;;;;;;
2023/08/26 17:37:16;;;;;;;9.32;3.05;;;18.80;99.90;;;;;;6237356;22;20051;-85
2023/08/26 17:39:49;;;;;;;7.28;3.00;;;18.90;99.90;;;;;;6248581;22;20016;-85
2023/08/26 17:42:15;;;;;;;7.15;2.90;;;18.80;99.90;;;;;;6198148;22;20016;-84
2023/08/26 17:44:41;;;;;;;7.75;3.05;;;18.80;99.90;;;;;;6249428;22;20340;-85
2023/08/26 17:47:09;;;;;;;9.52;3.00;;;18.90;99.90;;;;;;6278111;22;20458;-83
2023/08/26 17:49:35;;;;;;;6.80;3.05;;;19.10;99.90;;;;;;6249987;22;20022;-84
2023/08/26 17:52:07;;;;;;;7.85;3.05;;;19.00;99.90;;;;;;6249512;22;20020;-84
2023/08/26 17:54:47;;;;;;;7.35;3.10;;;18.80;99.90;;;;;;6250396;22;20448;-84
2023/08/26 17:57:13;;;;;;;8.20;3.22;;;18.60;99.90;;;;;;6245849;22;20019;-84
2023/08/26 17:59:48;;;;;;;9.52;3.58;;;18.50;99.90;;;;;;6249196;22;20018;-84
2023/08/26 18:02:39;;;;;;;7.82;3.28;;;18.20;99.90;;;;;;6248922;22;20465;-84
2023/08/26 18:08:29;;;;;;;6.65;2.97;;;18.20;99.90;;;;;;6094692;23;20457;-84
2023/08/26 18:11:02;;;;;;;9.40;3.47;;;17.90;99.90;;;;;;6069437;23;20026;-85
2023/08/26 18:13:49;;;;;;;7.72;3.20;;;17.90;99.90;;;;;;6094878;23;20359;-84
2023/08/26 18:16:23;;;;;;;8.82;3.40;;;17.80;99.90;;;;;;6094493;23;20015;-85
2023/08/26 18:19:07;;;;;;;7.32;3.30;;;17.70;99.90;;;;;;6068932;23;20392;-84
2023/08/26 18:21:35;;;;;;;8.55;3.28;;;17.60;99.90;;;;;;6071699;23;20097;-85
2023/08/26 18:24:01;;;;;;;7.70;3.22;;;17.50;99.90;;;;;;6245969;23;20479;-84
2023/08/26 18:26:27;;;;;;;8.15;3.60;;;17.40;99.90;;;;;;6218438;23;20078;-84
2023/08/26 18:28:53;;;;;;;9.27;3.42;;;17.50;99.90;;;;;;6246501;23;20347;-85
2023/08/26 18:31:18;;;;;;;8.23;3.47;;;17.20;99.90;;;;;;6219820;23;20016;-84
2023/08/26 18:33:59;;;;;;;9.85;3.70;;;17.30;99.90;;;;;;6245415;23;20027;-85
2023/08/26 18:36:27;;;;;;;9.95;4.30;;;17.10;99.90;;;;;;6246480;23;20016;-85
2023/08/26 18:38:58;;;;;;;7.95;3.70;;;17.00;99.90;;;;;;6219307;23;20433;-84
2023/08/26 18:41:33;;;;;;;8.95;4.38;;;17.00;99.90;;;;;;6245497;23;20023;-84
2023/08/26 18:43:59;;;;;;;10.25;4.30;;;17.20;99.90;;;;;;6219448;23;20024;-84
2023/08/26 18:46:53;;;;;;;9.77;4.43;;;16.80;99.90;;;;;;6245133;23;20016;-83
2023/08/26 18:49:19;;;;;;;9.07;4.13;;;16.70;99.90;;;;;;6216497;23;20020;-84
2023/08/26 18:52:13;;;;;;;8.45;4.38;;;16.60;99.90;;;;;;6217355;23;20066;-85
2023/08/26 18:54:47;;;;;;;11.00;4.20;;;16.50;99.90;;;;;;6217376;23;20452;-85
2023/08/26 18:57:15;;;;;;;11.10;4.70;;;16.50;99.90;;;;;;6245300;23;20054;-84
2023/08/26 18:59:41;;;;;;;10.38;4.97;;;16.40;99.90;;;;;;6245568;23;20020;-85
2023/08/26 19:02:29;;;;;;;9.55;4.80;;;16.30;99.90;;;;;;6218563;23;20023;-84
2023/08/26 19:04:55;;;;;;;9.82;5.15;;;16.20;99.90;;;;;;6274106;22;20400;-85
2023/08/26 19:07:21;;;;;;;10.38;4.93;;;16.20;99.90;;;;;;6249079;22;20015;-85
2023/08/26 19:09:49;;;;;;;8.60;4.70;;;16.10;99.90;;;;;;6276830;22;20023;-84
2023/08/26 19:12:27;;;;;;;11.23;5.00;;;16.10;99.90;;;;;;6249553;22;20101;-84
2023/08/26 19:15:08;;;;;;;9.63;4.88;;;16.50;99.90;;;;;;6275263;22;20348;-86
2023/08/26 19:17:40;;;;;;;9.98;4.82;;;16.00;99.90;;;;;;6248898;22;20019;-86
2023/08/26 19:20:26;;;;;;;9.95;4.68;;;16.40;99.90;;;;;;6249399;22;20012;-86
2023/08/26 19:22:55;;;;;;;8.90;4.78;;;16.30;99.90;;;;;;6273544;22;20031;-86
2023/08/26 19:25:21;;;;;;;9.55;4.63;;;16.60;99.90;;;;;;6249662;22;20336;-85
2023/08/26 19:27:49;;;;;;;9.40;4.85;;;16.20;99.90;;;;;;6276405;22;20494;-86
2023/08/26 19:30:21;;;;;;;8.82;4.30;;;16.30;99.90;;;;;;6276059;22;20008;-86